Time;durP1;ratioP1;P1;durP2;ratioP2;P2;SDS_P1;SDS_P2;PMS_P1;PMS_P2;Temp;Humidity;BMP_temperature;BMP_pressure;BME280_temperature;BME280_humidity;BME280_pressure;Samples;Min_cycle;Max_cycle;Signal;HPM_P1;HPM_P2
2024/01/20 00:00:15;;;;;;;3.83;1.45;;;;;;;4.48;100.00;99937.47;5072491;28;20414;-72
2024/01/20 00:02:42;;;;;;;5.07;1.50;;;;;;;4.50;100.00;99958.16;5073675;28;20076;-71
2024/01/20 00:05:11;;;;;;;3.50;1.40;;;;;;;4.51;100.00;99968.47;5073109;28;20067;-72
2024/01/20 00:07:38;;;;;;;4.45;1.83;;;;;;;4.47;100.00;99943.53;5073239;28;20076;-72
2024/01/20 00:10:10;;;;;;;4.03;1.58;;;;;;;4.48;100.00;99965.09;5071441;28;20532;-71
2024/01/20 00:12:39;;;;;;;4.18;1.40;;;;;;;4.60;100.00;99957.00;5059834;28;20084;-71
2024/01/20 00:15:08;;;;;;;5.40;1.50;;;;;;;4.53;100.00;99942.50;5073034;28;20057;-72
2024/01/20 00:17:38;;;;;;;4.43;1.33;;;;;;;4.72;100.00;99974.84;5073407;28;20052;-71
2024/01/20 00:20:06;;;;;;;4.80;1.40;;;;;;;4.54;100.00;99973.59;5072283;28;20056;-72
2024/01/20 00:22:35;;;;;;;3.45;1.48;;;;;;;4.58;100.00;99979.53;5073174;28;20060;-72
2024/01/20 00:25:03;;;;;;;3.38;1.42;;;;;;;4.57;100.00;99977.84;5071882;28;20394;-71
2024/01/20 00:27:30;;;;;;;3.55;1.30;;;;;;;4.60;100.00;99975.16;5072894;28;20052;-71
2024/01/20 00:29:58;;;;;;;4.38;1.30;;;;;;;4.60;100.00;99972.56;5071125;28;20526;-71
2024/01/20 00:32:26;;;;;;;5.45;1.55;;;;;;;4.61;100.00;99991.59;5071749;28;20056;-71
2024/01/20 00:34:53;;;;;;;3.17;1.33;;;;;;;4.57;100.00;99994.25;5065358;28;20049;-72
2024/01/20 00:37:37;;;;;;;4.85;1.50;;;;;;;4.57;100.00;99996.00;5053360;28;20060;-71
2024/01/20 00:40:05;;;;;;;4.85;1.60;;;;;;;4.49;100.00;99983.22;5070042;28;20053;-71
2024/01/20 00:42:32;;;;;;;3.50;1.50;;;;;;;4.72;100.00;99984.38;5073110;28;20465;-72
2024/01/20 00:44:59;;;;;;;5.22;1.60;;;;;;;4.79;100.00;99982.50;5070720;28;20059;-71
2024/01/20 00:47:26;;;;;;;4.60;1.58;;;;;;;4.78;100.00;99980.78;5071262;28;20128;-71
2024/01/20 00:49:53;;;;;;;3.40;1.40;;;;;;;4.73;100.00;99983.50;5064162;28;20059;-71
2024/01/20 00:52:20;;;;;;;7.00;1.95;;;;;;;4.68;100.00;99981.03;5064515;28;20051;-71
2024/01/20 00:54:46;;;;;;;9.90;1.92;;;;;;;4.66;100.00;99980.22;5051866;28;20052;-71
2024/01/20 00:57:13;;;;;;;4.65;1.70;;;;;;;4.65;100.00;99962.94;5071248;28;20052;-71
2024/01/20 00:59:40;;;;;;;4.88;1.67;;;;;;;4.49;100.00;99949.50;5071265;28;20063;-71
2024/01/20 01:02:07;;;;;;;4.00;1.80;;;;;;;4.72;100.00;99976.59;5068362;28;20048;-71
2024/01/20 01:04:33;;;;;;;7.75;2.40;;;;;;;4.60;100.00;99982.09;5061505;28;20048;-70
2024/01/20 01:07:00;;;;;;;4.68;1.92;;;;;;;4.80;100.00;99979.88;5071788;28;20080;-70
2024/01/20 01:09:27;;;;;;;4.28;1.80;;;;;;;4.81;100.00;99962.56;5069725;28;20052;-71
2024/01/20 01:11:54;;;;;;;4.55;1.60;;;;;;;4.84;100.00;99960.72;5071275;28;20567;-71
2024/01/20 01:14:20;;;;;;;6.20;2.15;;;;;;;4.68;100.00;99956.84;5065004;28;20376;-70
2024/01/20 01:16:47;;;;;;;5.13;1.92;;;;;;;4.91;100.00;99954.47;5064071;28;20486;-70
2024/01/20 01:19:15;;;;;;;7.45;2.40;;;;;;;4.79;100.00;99948.78;5069919;28;20516;-71
2024/01/20 01:21:42;;;;;;;5.70;2.05;;;;;;;4.86;100.00;99953.75;5071475;28;20130;-71
2024/01/20 01:24:09;;;;;;;8.30;1.85;;;;;;;4.94;100.00;99964.78;5072031;28;20458;-71
2024/01/20 01:26:35;;;;;;;9.73;2.47;;;;;;;4.74;100.00;99957.50;5064015;28;20159;-71
2024/01/20 01:29:02;;;;;;;7.97;2.25;;;;;;;4.72;100.00;99948.09;5065294;28;20045;-71
2024/01/20 01:31:29;;;;;;;7.40;2.58;;;;;;;4.72;100.00;99964.47;5071605;28;20059;-71
2024/01/20 01:33:56;;;;;;;6.50;2.55;;;;;;;4.65;100.00;99952.56;5071288;28;20071;-71
2024/01/20 01:36:23;;;;;;;5.50;2.35;;;;;;;4.64;100.00;99957.78;5057136;28;20080;-71
2024/01/20 01:38:49;;;;;;;7.65;3.40;;;;;;;4.61;100.00;99976.03;5070604;28;20048;-71
2024/01/20 01:41:16;;;;;;;7.60;2.50;;;;;;;4.56;100.00;99969.22;5070480;28;20053;-70
2024/01/20 01:43:43;;;;;;;6.78;2.58;;;;;;;4.73;100.00;99983.50;5065012;28;20091;-71
2024/01/20 01:46:10;;;;;;;8.07;2.70;;;;;;;4.71;100.00;99983.53;5063111;28;20760;-71
2024/01/20 01:48:36;;;;;;;7.28;2.95;;;;;;;4.65;100.00;99983.69;5070777;28;20049;-70
2024/01/20 01:51:04;;;;;;;8.30;2.83;;;;;;;4.61;100.00;99968.25;5060693;28;20497;-70
2024/01/20 01:53:34;;;;;;;7.63;2.55;;;;;;;4.84;100.00;99970.25;5064967;28;20076;-71
2024/01/20 01:56:01;;;;;;;10.13;3.45;;;;;;;4.71;100.00;99980.06;5060450;28;20044;-70
2024/01/20 01:58:28;;;;;;;10.25;3.20;;;;;;;4.66;100.00;99969.84;5070317;28;20504;-71
2024/01/20 02:00:55;;;;;;;10.25;3.17;;;;;;;4.89;100.00;99973.59;5070983;28;20123;-71
2024/01/20 02:03:23;;;;;;;6.38;2.30;;;;;;;4.97;100.00;99978.56;5071182;28;20386;-71
2024/01/20 02:05:51;;;;;;;8.57;3.08;;;;;;;4.76;100.00;99978.22;5071178;28;20044;-71
2024/01/20 02:08:19;;;;;;;11.75;3.13;;;;;;;4.76;100.00;99975.63;5070029;28;20076;-71
2024/01/20 02:10:47;;;;;;;7.47;2.92;;;;;;;4.76;100.00;99954.88;5064005;28;20052;-71
2024/01/20 02:13:15;;;;;;;9.55;2.70;;;;;;;4.89;100.00;99965.81;5061814;28;20048;-71
2024/01/20 02:15:42;;;;;;;7.75;2.92;;;;;;;4.73;100.00;99945.44;5070135;28;20098;-71
2024/01/20 02:18:09;;;;;;;9.07;2.90;;;;;;;4.88;100.00;99951.13;5068695;28;20462;-71
2024/01/20 02:20:36;;;;;;;9.32;3.05;;;;;;;4.82;100.00;99934.00;5070079;28;20052;-71
2024/01/20 02:23:03;;;;;;;10.68;3.00;;;;;;;4.74;100.00;99931.56;5070597;28;20083;-71
2024/01/20 02:25:30;;;;;;;11.80;4.13;;;;;;;4.66;100.00;99923.16;5070945;28;20059;-71
2024/01/20 02:27:57;;;;;;;11.52;3.20;;;;;;;4.83;100.00;99929.63;5069635;28;20048;-71
2024/01/20 02:30:23;;;;;;;10.75;2.78;;;;;;;4.75;100.00;99914.28;5069294;28;20497;-70
2024/01/20 02:32:50;;;;;;;11.55;4.22;;;;;;;4.58;100.00;99925.09;5070378;28;20548;-71
2024/01/20 02:35:21;;;;;;;12.50;3.75;;;;;;;4.49;100.00;99900.25;5059802;28;20517;-71
2024/01/20 02:37:47;;;;;;;8.32;3.28;;;;;;;4.78;100.00;99919.41;5055964;28;20056;-71
2024/01/20 02:40:14;;;;;;;8.63;2.95;;;;;;;4.82;100.00;99909.81;5067419;28;20048;-71
2024/01/20 02:42:41;;;;;;;8.85;2.80;;;;;;;4.88;100.00;99907.03;5069594;28;20060;-71
2024/01/20 02:45:08;;;;;;;10.50;2.88;;;;;;;4.84;100.00;99908.00;5070081;28;20044;-71
2024/01/20 02:47:35;;;;;;;8.98;2.75;;;;;;;4.74;100.00;99900.44;5070427;28;20352;-71
2024/01/20 02:50:01;;;;;;;7.68;2.97;;;;;;;4.75;100.00;99919.47;5069079;28;20048;-71
2024/01/20 02:52:28;;;;;;;8.50;2.97;;;;;;;4.81;100.00;99897.72;5070344;28;20125;-71
2024/01/20 02:54:55;;;;;;;10.70;2.92;;;;;;;4.75;100.00;99894.38;5068672;28;20081;-71
2024/01/20 02:57:22;;;;;;;12.93;3.17;;;;;;;4.83;100.00;99901.09;5069185;28;20135;-71
2024/01/20 02:59:48;;;;;;;10.88;3.15;;;;;;;4.80;100.00;99891.69;5069861;28;20204;-71
2024/01/20 03:02:15;;;;;;;10.23;3.40;;;;;;;4.71;100.00;99874.63;5069532;28;20052;-71
2024/01/20 03:04:42;;;;;;;12.27;3.83;;;;;;;4.73;100.00;99878.03;5058631;28;20399;-71
2024/01/20 03:07:09;;;;;;;15.18;3.10;;;;;;;4.57;100.00;99876.75;5066683;28;20044;-71
2024/01/20 03:09:35;;;;;;;9.70;3.08;;;;;;;4.76;100.00;99877.06;5066344;28;20059;-71
2024/01/20 03:12:02;;;;;;;8.73;3.00;;;;;;;4.66;100.00;99863.53;5055849;28;20119;-72
2024/01/20 03:14:29;;;;;;;8.27;2.75;;;;;;;4.74;100.00;99873.69;5070263;28;20059;-71
2024/01/20 03:16:56;;;;;;;12.05;3.50;;;;;;;4.68;100.00;99873.84;5056527;28;20053;-71
2024/01/20 03:19:23;;;;;;;12.38;3.05;;;;;;;4.62;100.00;99859.31;5058755;28;20048;-71
2024/01/20 03:21:49;;;;;;;12.38;3.15;;;;;;;4.54;100.00;99869.88;5058675;28;20098;-71
2024/01/20 03:24:19;;;;;;;11.90;3.13;;;;;;;4.62;100.00;99858.44;5072184;28;20055;-71
2024/01/20 03:26:49;;;;;;;14.73;2.83;;;;;;;4.73;100.00;99867.66;5073144;28;20095;-71
2024/01/20 03:29:16;;;;;;;9.43;2.50;;;;;;;4.82;100.00;99866.56;5073084;28;20130;-71
2024/01/20 03:31:43;;;;;;;11.15;2.80;;;;;;;4.81;100.00;99869.19;5066159;28;20098;-72
2024/01/20 03:34:09;;;;;;;8.95;2.53;;;;;;;4.67;100.00;99861.78;5054959;28;20064;-72
2024/01/20 03:36:37;;;;;;;9.02;2.53;;;;;;;4.89;100.00;99857.69;5069096;28;20036;-71
2024/01/20 03:39:03;;;;;;;9.70;2.53;;;;;;;4.79;100.00;99853.66;5061114;28;20404;-72
2024/01/20 03:41:30;;;;;;;10.98;3.42;;;;;;;4.60;100.00;99858.50;5068708;28;20052;-72
2024/01/20 03:43:57;;;;;;;9.35;3.17;;;;;;;4.89;100.00;99842.13;5073542;28;20059;-72
2024/01/20 03:46:24;;;;;;;7.88;2.88;;;;;;;4.82;100.00;99840.63;5073722;28;20048;-72
2024/01/20 03:48:51;;;;;;;9.75;2.78;;;;;;;4.75;100.00;99831.31;5073115;28;20047;-71
2024/01/20 03:51:18;;;;;;;12.00;4.30;;;;;;;4.80;100.00;99833.75;5073712;28;20080;-71
2024/01/20 03:53:45;;;;;;;9.35;2.65;;;;;;;4.80;100.00;99828.56;5059442;28;20169;-71
2024/01/20 03:56:11;;;;;;;8.13;2.50;;;;;;;4.95;100.00;99830.72;5073355;28;20052;-71
2024/01/20 03:58:39;;;;;;;9.98;2.75;;;;;;;4.88;100.00;99829.22;5071535;28;20135;-71
2024/01/20 04:01:05;;;;;;;12.60;2.85;;;;;;;4.66;100.00;99816.84;5072316;28;20055;-71
2024/01/20 04:03:32;;;;;;;9.35;2.53;;;;;;;5.04;100.00;99814.03;5072282;28;20048;-71
2024/01/20 04:05:59;;;;;;;12.27;2.40;;;;;;;5.39;100.00;99810.38;5071393;28;20048;-71
2024/01/20 04:08:25;;;;;;;10.73;2.50;;;;;;;5.44;100.00;99812.84;5060708;28;20094;-71
2024/01/20 04:10:52;;;;;;;10.75;2.47;;;;;;;5.25;100.00;99800.41;5055521;28;20557;-71
2024/01/20 04:13:19;;;;;;;12.10;2.50;;;;;;;5.50;100.00;99791.88;5067215;28;20049;-71
2024/01/20 04:15:46;;;;;;;13.30;3.13;;;;;;;5.40;100.00;99787.84;5067038;28;20037;-71
2024/01/20 04:18:12;;;;;;;9.25;2.45;;;;;;;5.44;100.00;99779.94;5063955;28;20048;-71
2024/01/20 04:20:39;;;;;;;11.25;2.50;;;;;;;5.16;100.00;99761.78;5071030;28;20052;-71
2024/01/20 04:23:06;;;;;;;12.07;3.00;;;;;;;5.43;100.00;99790.38;5071722;28;20040;-71
2024/01/20 04:25:33;;;;;;;9.38;2.35;;;;;;;5.58;100.00;99783.81;5072797;28;20067;-71
2024/01/20 04:27:59;;;;;;;14.52;3.88;;;;;;;5.30;100.00;99787.31;5069735;28;20474;-71
2024/01/20 04:30:26;;;;;;;8.88;2.40;;;;;;;5.28;100.00;99789.94;5071169;28;20059;-71
2024/01/20 04:32:53;;;;;;;8.48;2.22;;;;;;;5.41;100.00;99777.44;5072003;28;20102;-71
2024/01/20 04:35:20;;;;;;;6.80;2.05;;;;;;;5.05;100.00;99775.09;5071448;28;20047;-71
2024/01/20 04:37:47;;;;;;;10.88;2.55;;;;;;;5.31;100.00;99773.41;5071554;28;20122;-71
2024/01/20 04:40:13;;;;;;;8.30;2.20;;;;;;;5.41;100.00;99767.03;5071979;28;20139;-71
2024/01/20 04:42:40;;;;;;;9.52;2.20;;;;;;;5.34;100.00;99765.53;5072860;28;20048;-71
2024/01/20 04:45:08;;;;;;;8.88;2.50;;;;;;;5.36;100.00;99750.75;5070889;28;20079;-71
2024/01/20 04:47:34;;;;;;;7.35;2.08;;;;;;;5.21;100.00;99753.88;5068663;28;20417;-71
2024/01/20 04:50:01;;;;;;;11.15;2.20;;;;;;;5.39;100.00;99745.47;5071814;28;20051;-71
2024/01/20 04:52:28;;;;;;;5.85;2.38;;;;;;;5.57;100.00;99749.22;5072811;28;20044;-71
2024/01/20 04:54:55;;;;;;;4.75;1.88;;;;;;;5.43;100.00;99751.44;5072858;28;20356;-71
2024/01/20 04:57:21;;;;;;;4.85;1.60;;;;;;;5.34;100.00;99737.00;5072167;28;20051;-71
2024/01/20 04:59:48;;;;;;;9.48;1.75;;;;;;;5.35;100.00;99743.03;5070133;28;20052;-71
2024/01/20 05:02:15;;;;;;;5.03;1.63;;;;;;;5.65;100.00;99741.19;5066251;28;20426;-71
2024/01/20 05:04:42;;;;;;;4.82;1.50;;;;;;;5.33;100.00;99741.34;5061220;28;20302;-71
2024/01/20 05:07:08;;;;;;;5.68;1.75;;;;;;;5.43;100.00;99735.84;5071899;28;20130;-71
2024/01/20 05:09:35;;;;;;;6.13;1.75;;;;;;;5.38;100.00;99748.97;5063689;28;20502;-71
2024/01/20 05:12:02;;;;;;;6.47;1.60;;;;;;;5.31;100.00;99729.28;5069979;28;20049;-71
2024/01/20 05:14:29;;;;;;;8.40;1.85;;;;;;;5.28;100.00;99727.66;5071654;28;20467;-71
2024/01/20 05:16:56;;;;;;;8.93;1.90;;;;;;;5.33;100.00;99736.16;5071559;28;20440;-71
2024/01/20 05:19:22;;;;;;;4.10;1.50;;;;;;;5.51;100.00;99729.50;5062629;28;20056;-71
2024/01/20 05:21:50;;;;;;;8.90;2.08;;;;;;;5.40;100.00;99728.16;5072282;28;20056;-70
2024/01/20 05:24:16;;;;;;;5.78;1.70;;;;;;;5.40;100.00;99717.75;5071932;28;20409;-71
2024/01/20 05:26:43;;;;;;;3.67;1.40;;;;;;;5.26;100.00;99726.88;5070833;28;20118;-71
2024/01/20 05:29:09;;;;;;;4.90;1.63;;;;;;;5.31;100.00;99724.97;5070046;28;20037;-71
2024/01/20 05:31:36;;;;;;;5.18;1.63;;;;;;;5.33;100.00;99724.94;5066120;28;20406;-71
2024/01/20 05:34:03;;;;;;;7.65;1.95;;;;;;;5.24;100.00;99727.78;5070214;28;20456;-71
2024/01/20 05:36:30;;;;;;;5.78;1.95;;;;;;;5.26;100.00;99731.22;5069869;28;20056;-71
2024/01/20 05:38:56;;;;;;;4.38;1.67;;;;;;;5.44;100.00;99740.16;5069842;28;20466;-71
2024/01/20 05:41:23;;;;;;;5.72;1.90;;;;;;;5.30;100.00;99735.41;5071004;28;20048;-71
2024/01/20 05:43:50;;;;;;;5.82;1.95;;;;;;;5.15;100.00;99734.13;5071631;28;20055;-71
2024/01/20 05:46:19;;;;;;;3.72;1.92;;;;;;;5.30;100.00;99741.44;5069245;28;20067;-71
2024/01/20 05:48:46;;;;;;;3.67;1.60;;;;;;;5.32;100.00;99738.78;5065456;28;20052;-70
2024/01/20 05:51:13;;;;;;;5.68;2.28;;;;;;;5.22;100.00;99729.59;5070563;28;20056;-70
2024/01/20 05:53:40;;;;;;;5.88;1.50;;;;;;;5.25;100.00;99734.69;5070982;28;20182;-71
2024/01/20 05:56:06;;;;;;;4.03;1.52;;;;;;;5.24;100.00;99745.97;5070258;28;20090;-71
2024/01/20 05:58:33;;;;;;;4.20;1.60;;;;;;;5.27;100.00;99740.69;5069630;28;20062;-71
2024/01/20 06:01:00;;;;;;;4.00;1.38;;;;;;;5.44;100.00;99740.16;5070772;28;20500;-71
2024/01/20 06:03:27;;;;;;;3.75;1.38;;;;;;;5.25;100.00;99743.31;5070192;28;20056;-71
2024/01/20 06:05:54;;;;;;;6.45;1.60;;;;;;;5.51;100.00;99750.28;5063525;28;20045;-71
2024/01/20 06:08:21;;;;;;;3.33;1.40;;;;;;;4.93;100.00;99733.94;5063953;28;20044;-71
2024/01/20 06:10:48;;;;;;;2.97;1.52;;;;;;;4.91;100.00;99743.53;5069570;28;20517;-70
2024/01/20 06:13:15;;;;;;;4.13;1.50;;;;;;;4.92;100.00;99721.84;5069514;28;20052;-71
2024/01/20 06:15:41;;;;;;;3.17;1.20;;;;;;;4.88;100.00;99748.78;5070576;28;20049;-71
2024/01/20 06:18:08;;;;;;;3.38;1.27;;;;;;;5.01;100.00;99737.16;5070406;28;20413;-71
2024/01/20 06:20:35;;;;;;;2.35;1.20;;;;;;;5.00;100.00;99750.19;5065147;28;20055;-71
2024/01/20 06:23:01;;;;;;;2.15;1.15;;;;;;;5.01;100.00;99751.84;5071088;28;20048;-71
2024/01/20 06:25:28;;;;;;;2.30;1.10;;;;;;;4.90;100.00;99745.25;5069387;28;20262;-71
2024/01/20 06:27:55;;;;;;;2.60;1.15;;;;;;;4.84;100.00;99736.81;5070552;28;20479;-71
2024/01/20 06:30:21;;;;;;;2.65;1.20;;;;;;;4.93;100.00;99726.16;5068689;28;20078;-71
2024/01/20 06:32:48;;;;;;;5.97;1.42;;;;;;;5.03;100.00;99737.97;5068341;28;20395;-71
2024/01/20 06:35:15;;;;;;;3.15;1.20;;;;;;;4.77;100.00;99730.97;5070474;28;20064;-71
2024/01/20 06:37:42;;;;;;;3.75;1.27;;;;;;;5.01;100.00;99736.28;5069610;28;20135;-71
2024/01/20 06:40:09;;;;;;;3.53;1.50;;;;;;;5.03;100.00;99750.06;5069679;28;20082;-71
2024/01/20 06:42:36;;;;;;;5.53;1.30;;;;;;;4.91;100.00;99746.13;5070558;28;20056;-71
2024/01/20 06:45:03;;;;;;;2.85;1.25;;;;;;;4.81;100.00;99737.75;5068760;28;20052;-71
2024/01/20 06:47:30;;;;;;;3.55;1.50;;;;;;;4.77;100.00;99735.31;5070397;28;20044;-71
2024/01/20 06:49:57;;;;;;;1.88;1.02;;;;;;;4.91;100.00;99748.72;5068727;28;20061;-71
2024/01/20 06:52:23;;;;;;;4.35;1.20;;;;;;;4.62;100.00;99719.31;5069259;28;20127;-71
2024/01/20 06:54:50;;;;;;;3.13;1.23;;;;;;;4.85;100.00;99754.06;5070048;28;20059;-70
2024/01/20 06:57:17;;;;;;;5.38;1.50;;;;;;;4.88;100.00;99746.19;5069308;28;20370;-71
2024/01/20 06:59:43;;;;;;;5.60;1.10;;;;;;;4.82;100.00;99736.03;5067897;28;20099;-71
2024/01/20 07:02:10;;;;;;;3.88;1.30;;;;;;;4.98;100.00;99736.41;5068840;28;20044;-71
2024/01/20 07:04:37;;;;;;;4.53;1.33;;;;;;;4.91;100.00;99743.53;5069838;28;20045;-71
2024/01/20 07:07:04;;;;;;;2.38;1.10;;;;;;;4.91;100.00;99744.38;5068118;28;20324;-71
2024/01/20 07:09:30;;;;;;;2.33;1.10;;;;;;;4.86;100.00;99735.88;5068139;28;20055;-72
2024/01/20 07:11:57;;;;;;;2.72;1.20;;;;;;;4.97;100.00;99743.31;5067012;28;20055;-71
2024/01/20 07:14:25;;;;;;;3.55;1.25;;;;;;;4.93;100.00;99742.56;5057139;28;20044;-71
2024/01/20 07:16:52;;;;;;;2.90;1.10;;;;;;;4.83;100.00;99740.31;5069835;28;20472;-71
2024/01/20 07:19:19;;;;;;;3.20;1.17;;;;;;;4.98;100.00;99736.41;5066897;28;20142;-71
2024/01/20 07:21:46;;;;;;;4.35;1.38;;;;;;;4.97;100.00;99734.69;5066521;28;20060;-71
2024/01/20 07:24:13;;;;;;;4.60;1.33;;;;;;;5.00;100.00;99729.44;5069383;28;20057;-71
2024/01/20 07:26:40;;;;;;;2.22;1.10;;;;;;;4.80;100.00;99712.72;5055941;28;20135;-71
2024/01/20 07:29:06;;;;;;;2.80;1.20;;;;;;;5.02;100.00;99728.47;5062176;28;20040;-71
2024/01/20 07:31:33;;;;;;;2.88;1.20;;;;;;;5.04;100.00;99731.84;5059849;28;20478;-71
2024/01/20 07:34:00;;;;;;;2.35;1.10;;;;;;;5.06;100.00;99740.44;5070061;28;20060;-71
2024/01/20 07:36:27;;;;;;;2.92;1.10;;;;;;;5.06;100.00;99752.56;5068442;28;20139;-71
2024/01/20 07:38:53;;;;;;;4.03;1.30;;;;;;;5.07;100.00;99739.56;5066516;28;20059;-71
2024/01/20 07:41:20;;;;;;;3.35;1.38;;;;;;;5.01;100.00;99736.28;5069201;28;20053;-71
2024/01/20 07:43:47;;;;;;;2.70;1.10;;;;;;;5.17;100.00;99732.34;5068111;28;20052;-71
2024/01/20 07:46:14;;;;;;;4.00;1.30;;;;;;;5.04;100.00;99734.47;5070101;28;20045;-71
2024/01/20 07:48:42;;;;;;;4.43;1.20;;;;;;;5.15;100.00;99726.34;5068259;28;20063;-71
2024/01/20 07:51:09;;;;;;;4.45;1.42;;;;;;;5.18;100.00;99733.19;5065565;28;20085;-71
2024/01/20 07:53:36;;;;;;;2.95;1.13;;;;;;;5.17;100.00;99724.56;5067841;28;20078;-71
2024/01/20 07:56:02;;;;;;;1.67;1.10;;;;;;;5.25;100.00;99729.50;5069249;28;20052;-72
2024/01/20 07:58:29;;;;;;;1.98;1.20;;;;;;;5.07;100.00;99726.59;5068140;28;20102;-71
2024/01/20 08:00:56;;;;;;;1.88;1.00;;;;;;;5.21;100.00;99720.13;5069387;28;20478;-71
2024/01/20 08:03:23;;;;;;;3.17;1.23;;;;;;;5.29;100.00;99712.94;5069292;28;20048;-71
2024/01/20 08:05:49;;;;;;;1.40;1.00;;;;;;;5.21;100.00;99705.41;5069403;28;20052;-71
2024/01/20 08:08:16;;;;;;;3.95;1.27;;;;;;;5.22;100.00;99706.22;5067134;28;20474;-71
2024/01/20 08:10:43;;;;;;;1.60;1.00;;;;;;;5.10;100.00;99716.13;5072117;28;20413;-71
2024/01/20 08:13:09;;;;;;;3.22;1.00;;;;;;;4.95;100.00;99725.22;5071416;28;20052;-71
2024/01/20 08:15:36;;;;;;;2.85;1.10;;;;;;;5.20;100.00;99739.19;5072005;28;20044;-71
2024/01/20 08:18:03;;;;;;;4.65;1.15;;;;;;;5.21;100.00;99725.31;5071949;28;20131;-71
2024/01/20 08:20:30;;;;;;;3.22;1.27;;;;;;;5.37;100.00;99738.66;5072548;28;20044;-71
2024/01/20 08:22:57;;;;;;;5.35;1.55;;;;;;;5.22;100.00;99732.19;5072962;28;20485;-72
2024/01/20 08:25:23;;;;;;;4.70;1.25;;;;;;;5.17;100.00;99721.97;5073166;28;20059;-72
2024/01/20 08:27:50;;;;;;;2.65;1.20;;;;;;;5.33;100.00;99738.75;5072331;28;20064;-71
2024/01/20 08:30:17;;;;;;;3.28;1.10;;;;;;;5.28;100.00;99730.25;5071806;28;20045;-71
2024/01/20 08:32:44;;;;;;;2.83;1.00;;;;;;;5.26;100.00;99731.22;5072074;28;20132;-71
2024/01/20 08:35:11;;;;;;;3.13;1.20;;;;;;;5.39;100.00;99729.06;5066395;28;20143;-71
2024/01/20 08:37:38;;;;;;;2.38;1.20;;;;;;;5.09;100.00;99719.59;5065243;28;20483;-71
2024/01/20 08:40:05;;;;;;;4.53;1.30;;;;;;;5.27;100.00;99722.50;5071381;28;20052;-71
2024/01/20 08:42:32;;;;;;;3.60;1.30;;;;;;;5.32;100.00;99716.28;5071529;28;20157;-71
2024/01/20 08:44:59;;;;;;;2.92;1.20;;;;;;;5.31;100.00;99708.53;5071974;28;20087;-71
2024/01/20 08:47:27;;;;;;;3.35;1.27;;;;;;;5.31;100.00;99699.00;5071509;28;20052;-71
2024/01/20 08:49:54;;;;;;;2.67;1.20;;;;;;;5.25;100.00;99704.38;5069989;28;20048;-71
2024/01/20 08:52:20;;;;;;;1.60;1.08;;;;;;;5.29;100.00;99681.78;5071403;28;20048;-72
2024/01/20 08:54:47;;;;;;;2.72;1.20;;;;;;;5.30;100.00;99692.13;5072431;28;20053;-72
2024/01/20 08:57:14;;;;;;;3.63;1.30;;;;;;;5.05;100.00;99683.44;5071596;28;20040;-71
2024/01/20 08:59:40;;;;;;;2.30;1.10;;;;;;;5.35;100.00;99688.50;5071148;28;20098;-71
2024/01/20 09:02:07;;;;;;;2.10;1.13;;;;;;;5.51;100.00;99695.75;5072302;28;20086;-72
2024/01/20 09:04:34;;;;;;;2.67;1.25;;;;;;;5.39;100.00;99675.38;5071959;28;20060;-72
2024/01/20 09:07:01;;;;;;;3.42;1.20;;;;;;;5.42;100.00;99695.19;5071181;28;20040;-71
2024/01/20 09:09:28;;;;;;;1.67;1.20;;;;;;;5.63;100.00;99693.63;5070514;28;20056;-71
2024/01/20 09:11:55;;;;;;;2.47;1.10;;;;;;;5.50;100.00;99701.00;5069224;28;20512;-71
2024/01/20 09:14:22;;;;;;;1.67;1.10;;;;;;;5.27;100.00;99650.69;5062397;28;20068;-71
2024/01/20 09:16:48;;;;;;;1.88;1.00;;;;;;;5.47;100.00;99693.28;5065243;28;20395;-71
2024/01/20 09:19:15;;;;;;;4.28;1.30;;;;;;;5.57;100.00;99699.03;5068104;28;20052;-71
2024/01/20 09:21:46;;;;;;;5.18;1.45;;;;;;;5.33;100.00;99710.19;5053928;28;20062;-71
2024/01/20 09:24:13;;;;;;;4.00;1.30;;;;;;;5.54;100.00;99679.22;5071377;28;20052;-71
2024/01/20 09:26:40;;;;;;;2.58;1.40;;;;;;;5.49;100.00;99701.91;5058843;28;20048;-71
2024/01/20 09:29:07;;;;;;;1.50;1.08;;;;;;;5.60;100.00;99701.56;5070926;28;20071;-71
2024/01/20 09:31:34;;;;;;;1.73;1.10;;;;;;;5.50;100.00;99711.38;5069737;28;20052;-71
2024/01/20 09:34:00;;;;;;;3.28;1.30;;;;;;;5.62;100.00;99702.34;5072191;28;20489;-71
2024/01/20 09:36:27;;;;;;;2.65;1.30;;;;;;;5.58;100.00;99705.91;5071201;28;20045;-71
2024/01/20 09:38:54;;;;;;;1.70;1.13;;;;;;;5.68;100.00;99709.91;5070372;28;20067;-71
2024/01/20 09:41:21;;;;;;;2.63;1.10;;;;;;;5.73;100.00;99697.63;5071382;28;20110;-72
2024/01/20 09:43:48;;;;;;;1.58;0.98;;;;;;;5.80;100.00;99695.66;5070872;28;20056;-71
2024/01/20 09:46:15;;;;;;;2.42;1.27;;;;;;;5.81;100.00;99716.41;5071633;28;20514;-71
2024/01/20 09:48:43;;;;;;;2.92;1.10;;;;;;;5.75;100.00;99707.97;5056748;28;20044;-71
2024/01/20 09:51:10;;;;;;;1.95;1.10;;;;;;;5.88;100.00;99709.25;5070180;28;20447;-71
2024/01/20 09:53:38;;;;;;;2.40;1.08;;;;;;;5.90;100.00;99717.84;5070414;28;20310;-71
2024/01/20 09:56:05;;;;;;;4.43;1.30;;;;;;;5.77;100.00;99703.56;5070961;28;20052;-71
2024/01/20 09:58:35;;;;;;;1.92;1.00;;;;;;;5.80;100.00;99708.66;5068612;28;20059;-71
2024/01/20 10:01:02;;;;;;;4.40;1.10;;;;;;;5.94;100.00;99695.19;5070749;28;20056;-71
2024/01/20 10:03:32;;;;;;;2.47;1.10;;;;;;;5.93;100.00;99707.31;5070202;28;20049;-71
2024/01/20 10:05:59;;;;;;;2.00;1.13;;;;;;;5.96;100.00;99711.59;5070512;28;20059;-71
2024/01/20 10:08:25;;;;;;;2.25;1.20;;;;;;;5.78;100.00;99705.28;5069266;28;20056;-70
2024/01/20 10:11:03;;;;;;;2.88;1.10;;;;;;;5.79;100.00;99704.34;5070033;28;20049;-71
2024/01/20 10:13:30;;;;;;;1.50;1.00;;;;;;;5.62;100.00;99666.81;5056738;28;20140;-71
2024/01/20 10:15:57;;;;;;;1.90;1.05;;;;;;;5.83;100.00;99691.22;5063447;28;20493;-71
2024/01/20 10:18:24;;;;;;;2.85;1.08;;;;;;;5.88;100.00;99696.25;5062199;28;20056;-71
2024/01/20 10:21:02;;;;;;;3.75;1.52;;;;;;;5.98;100.00;99695.03;5069749;28;20075;-71
2024/01/20 10:23:29;;;;;;;2.65;1.13;;;;;;;5.78;100.00;99698.31;5070347;28;20053;-71
2024/01/20 10:26:03;;;;;;;1.63;1.05;;;;;;;5.89;100.00;99697.94;5068873;28;20052;-72
2024/01/20 10:28:30;;;;;;;1.48;0.90;;;;;;;6.07;100.00;99702.53;5068352;28;20045;-71
2024/01/20 10:30:57;;;;;;;2.50;1.10;;;;;;;6.05;100.00;99706.06;5069841;28;20525;-71
2024/01/20 10:33:24;;;;;;;3.05;1.17;;;;;;;6.12;100.00;99720.53;5070605;28;20493;-71
2024/01/20 10:35:52;;;;;;;2.15;1.10;;;;;;;6.22;100.00;99716.72;5070315;28;20048;-71
2024/01/20 10:38:20;;;;;;;1.75;1.00;;;;;;;6.10;100.00;99717.16;5068751;28;20041;-70
2024/01/20 10:40:53;;;;;;;2.30;1.10;;;;;;;6.18;100.00;99709.06;5070641;28;20087;-71
2024/01/20 10:43:20;;;;;;;5.80;1.20;;;;;;;6.13;100.00;99718.81;5069955;28;20040;-71
2024/01/20 10:46:04;;;;;;;2.55;1.02;;;;;;;6.23;100.00;99697.63;5070117;28;20051;-71
2024/01/20 10:48:34;;;;;;;3.45;1.20;;;;;;;6.25;100.00;99679.34;5067510;28;20067;-70
2024/01/20 10:51:07;;;;;;;3.15;1.20;;;;;;;6.03;100.00;99669.75;5070198;28;20060;-71
2024/01/20 10:53:35;;;;;;;;;;;;;;;6.21;100.00;99657.00;5070403;28;20052;-71
2024/01/20 10:56:04;;;;;;;2.47;1.10;;;;;;;6.03;100.00;99661.94;5069966;28;19943;-70
2024/01/20 10:58:35;;;;;;;2.67;1.20;;;;;;;6.18;100.00;99696.97;5069052;28;20083;-71
2024/01/20 11:01:02;;;;;;;3.25;1.33;;;;;;;6.15;100.00;99704.00;5069355;28;20524;-70
2024/01/20 11:03:29;;;;;;;3.70;1.30;;;;;;;6.44;100.00;99710.75;5070087;28;20094;-70
2024/01/20 11:05:56;;;;;;;2.10;1.05;;;;;;;6.47;100.00;99711.47;5062271;28;20055;-71
2024/01/20 11:08:25;;;;;;;1.70;1.00;;;;;;;6.44;100.00;99679.53;5063115;28;20132;-70
2024/01/20 11:10:54;;;;;;;1.75;1.02;;;;;;;6.44;100.00;99689.94;5069620;28;20060;-72
2024/01/20 11:13:26;;;;;;;2.35;1.10;;;;;;;6.60;100.00;99708.41;5070183;28;20052;-70
2024/01/20 11:15:53;;;;;;;2.47;1.17;;;;;;;6.43;100.00;99696.06;5069423;28;20048;-71
2024/01/20 11:18:22;;;;;;;3.55;1.20;;;;;;;6.53;100.00;99686.97;5067229;28;20076;-71
2024/01/20 11:21:07;;;;;;;2.58;1.00;;;;;;;6.61;100.00;99695.34;5068225;28;20048;-71
2024/01/20 11:23:33;;;;;;;2.42;1.13;;;;;;;6.47;100.00;99688.06;5059910;28;20052;-70
2024/01/20 11:26:11;;;;;;;2.40;1.00;;;;;;;6.59;100.00;99689.38;5067777;28;20059;-72
2024/01/20 11:28:43;;;;;;;2.47;1.10;;;;;;;6.56;100.00;99673.88;5056540;28;20091;-71
2024/01/20 11:31:19;;;;;;;2.65;1.10;;;;;;;6.67;100.00;99677.81;5068824;28;20059;-73